createdAt,value
2024-02-19T00:03:21.267Z,101578.87
2024-02-19T00:08:25.084Z,101568.72
2024-02-19T00:13:29.443Z,101553.48
2024-02-19T00:18:33.276Z,101543.66
2024-02-19T00:23:37.629Z,101532.08
2024-02-19T00:28:41.555Z,101522.30
2024-02-19T00:33:45.472Z,101525.23
2024-02-19T00:38:49.493Z,101516.48
2024-02-19T00:43:53.176Z,101497.38
2024-02-19T00:48:57.185Z,101481.52
2024-02-19T00:54:01.206Z,101465.77
2024-02-19T00:59:04.974Z,101466.36
2024-02-19T01:04:08.923Z,101453.77
2024-02-19T01:09:12.976Z,101436.23
2024-02-19T01:14:16.775Z,101431.13
2024-02-19T01:19:20.667Z,101424.27
2024-02-19T01:24:25.206Z,101420.05
2024-02-19T01:29:29.025Z,101410.67
2024-02-19T01:34:32.961Z,101399.33
2024-02-19T01:39:36.877Z,101390.52
2024-02-19T01:44:41.127Z,101386.13
2024-02-19T01:49:45.463Z,101372.98
2024-02-19T01:54:50.019Z,101365.61
2024-02-19T01:59:55.228Z,101346.06
2024-02-19T02:04:59.086Z,101337.54
2024-02-19T02:10:06.086Z,101332.08
2024-02-19T02:15:10.905Z,101325.38
2024-02-19T02:20:15.125Z,101320.46
2024-02-19T02:25:19.303Z,101308.35
2024-02-19T02:30:23.399Z,101287.14
2024-02-19T02:35:27.130Z,101276.09
2024-02-19T02:40:31.701Z,101274.20
2024-02-19T02:45:35.578Z,101266.38
2024-02-19T02:50:39.308Z,101262.19
2024-02-19T02:55:43.208Z,101249.52
2024-02-19T03:00:47.179Z,101225.77
2024-02-19T03:05:50.983Z,101213.52
2024-02-19T03:10:54.974Z,101216.17
2024-02-19T03:16:19.164Z,101219.91
2024-02-19T03:21:23.044Z,101209.03
2024-02-19T03:26:37.555Z,101199.92
2024-02-19T03:31:44.973Z,101190.59
2024-02-19T03:36:50.853Z,101175.23
2024-02-19T03:41:54.912Z,101172.52
2024-02-19T03:47:02.283Z,101161.89
2024-02-19T03:52:07.668Z,101155.36
2024-02-19T03:57:11.611Z,101157.52
2024-02-19T04:02:15.275Z,101162.66
2024-02-19T04:07:19.213Z,101155.01
2024-02-19T04:12:23.131Z,101152.45
2024-02-19T04:17:27.111Z,101145.21
2024-02-19T04:22:30.955Z,101139.48
2024-02-19T04:27:34.702Z,101132.23
2024-02-19T04:32:38.637Z,101129.17
2024-02-19T04:37:42.429Z,101120.34
2024-02-19T04:42:46.125Z,101114.40
2024-02-19T04:47:50.014Z,101107.95
2024-02-19T04:52:53.839Z,101102.30
2024-02-19T04:57:57.721Z,101091.84
2024-02-19T05:03:01.506Z,101078.63
2024-02-19T05:08:06.437Z,101065.27
2024-02-19T05:13:10.392Z,101052.77
2024-02-19T05:18:14.369Z,101044.12
2024-02-19T05:23:18.398Z,101026.14
2024-02-19T05:28:22.349Z,101018.99
2024-02-19T05:33:26.096Z,101018.77
2024-02-19T05:38:29.853Z,101012.05
2024-02-19T05:43:33.673Z,101001.88
2024-02-19T05:48:37.696Z,100994.09
2024-02-19T05:53:41.688Z,100987.02
2024-02-19T05:58:46.875Z,100977.54
2024-02-19T06:03:50.592Z,100974.55
2024-02-19T06:08:54.384Z,100967.90
2024-02-19T06:13:58.322Z,100961.04
2024-02-19T06:19:03.419Z,100956.02
2024-02-19T06:24:07.932Z,100945.77
2024-02-19T06:29:13.687Z,100943.02
2024-02-19T06:34:17.626Z,100941.61
2024-02-19T06:39:22.164Z,100944.81
2024-02-19T06:44:26.286Z,100941.77
2024-02-19T06:49:32.080Z,100935.61
2024-02-19T06:54:37.258Z,100933.65
2024-02-19T06:59:42.560Z,100923.48
2024-02-19T07:04:47.179Z,100917.85
2024-02-19T07:09:51.985Z,100909.98
2024-02-19T07:14:56.240Z,100913.11
2024-02-19T07:20:03.666Z,100909.03
2024-02-19T07:25:16.593Z,100903.96
2024-02-19T07:30:24.641Z,100899.14
2024-02-19T07:35:40.376Z,100895.65
2024-02-19T07:41:00.704Z,100882.67
2024-02-19T07:46:05.778Z,100871.55
2024-02-19T07:51:16.712Z,100867.83
2024-02-19T07:56:21.185Z,100863.63
2024-02-19T08:01:25.599Z,100856.34
2024-02-19T08:06:30.136Z,100852.69
2024-02-19T08:11:34.556Z,100843.02
2024-02-19T08:16:40.343Z,100836.27
2024-02-19T08:21:45.834Z,100830.94
2024-02-19T08:26:50.444Z,100829.94
2024-02-19T08:31:57.397Z,100824.23
2024-02-19T08:37:01.681Z,100821.18
2024-02-19T08:42:06.755Z,100814.91
2024-02-19T08:47:11.773Z,100813.67
2024-02-19T08:52:18.801Z,100807.65
2024-02-19T08:57:26.625Z,100806.36
2024-02-19T09:02:33.352Z,100801.70
2024-02-19T09:07:37.774Z,100798.98
2024-02-19T09:12:42.214Z,100788.50
2024-02-19T09:17:46.520Z,100779.35
2024-02-19T09:22:50.698Z,100773.17
2024-02-19T09:27:54.991Z,100767.38
2024-02-19T09:32:59.075Z,100756.95
2024-02-19T09:38:03.405Z,100752.61
2024-02-19T09:43:07.775Z,100751.28
2024-02-19T09:48:13.638Z,100747.88
2024-02-19T09:53:21.837Z,100748.04
2024-02-19T09:58:27.768Z,100749.21
2024-02-19T10:03:32.286Z,100742.23
2024-02-19T10:08:36.855Z,100737.05
2024-02-19T10:13:43.149Z,100733.55
2024-02-19T10:18:47.430Z,100731.13
2024-02-19T10:23:51.738Z,100729.67
2024-02-19T10:28:58.274Z,100722.81
2024-02-19T10:34:07.411Z,100713.27
2024-02-19T10:39:11.461Z,100712.19
2024-02-19T10:44:17.738Z,100702.19
2024-02-19T10:49:22.223Z,100697.45
2024-02-19T10:54:30.885Z,100693.09
2024-02-19T10:59:39.598Z,100686.64
2024-02-19T11:04:43.909Z,100677.98
2024-02-19T11:09:58.603Z,100659.95
2024-02-19T11:15:12.913Z,100656.75
2024-02-19T11:20:26.142Z,100652.95
2024-02-19T11:25:30.282Z,100649.42
2024-02-19T11:30:34.406Z,100640.52
2024-02-19T11:35:38.560Z,100633.94
2024-02-19T11:40:43.053Z,100625.48
2024-02-19T11:45:47.830Z,100615.21
2024-02-19T11:50:58.699Z,100614.68
2024-02-19T11:56:04.586Z,100610.35
2024-02-19T12:01:10.043Z,100608.73
2024-02-19T12:06:14.955Z,100602.15
2024-02-19T12:11:19.157Z,100601.55
2024-02-19T12:16:26.336Z,100596.81
2024-02-19T12:21:30.966Z,100586.21
2024-02-19T12:26:37.804Z,100587.91
2024-02-19T12:31:44.760Z,100582.32
2024-02-19T12:36:49.473Z,100586.94
2024-02-19T12:41:53.981Z,100583.99
2024-02-19T12:46:57.980Z,100587.02
2024-02-19T12:52:03.800Z,100587.27
2024-02-19T12:57:10.354Z,100584.90
2024-02-19T13:02:16.988Z,100587.13
2024-02-19T13:07:21.611Z,100586.49
2024-02-19T13:12:26.374Z,100581.64
2024-02-19T13:17:39.703Z,100587.29
2024-02-19T13:22:54.488Z,100596.80
2024-02-19T13:27:59.111Z,100602.92
2024-02-19T13:33:07.204Z,100598.89
2024-02-19T13:38:12.623Z,100602.00
2024-02-19T13:43:17.181Z,100599.84
2024-02-19T13:48:24.889Z,100607.38
2024-02-19T13:53:30.383Z,100614.83
2024-02-19T13:58:35.294Z,100617.13
2024-02-19T14:03:39.603Z,100619.36
2024-02-19T14:08:44.367Z,100622.95
2024-02-19T14:13:58.026Z,100629.13
2024-02-19T14:19:06.086Z,100627.98
2024-02-19T14:24:10.034Z,100631.52
2024-02-19T14:29:14.009Z,100636.99
2024-02-19T14:34:18.095Z,100640.00
2024-02-19T14:39:22.966Z,100650.68
2024-02-19T14:44:26.980Z,100654.55
2024-02-19T14:49:31.649Z,100661.64
2024-02-19T14:54:38.772Z,100666.52
2024-02-19T14:59:42.940Z,100667.86
2024-02-19T15:04:47.155Z,100675.32
2024-02-19T15:09:51.017Z,100677.98
2024-02-19T15:14:55.273Z,100684.38
2024-02-19T15:19:59.305Z,100690.92
2024-02-19T15:25:05.654Z,100695.99
2024-02-19T15:30:13.311Z,100702.48
2024-02-19T15:35:18.558Z,100712.30
2024-02-19T15:40:24.460Z,100719.79
2024-02-19T15:45:29.247Z,100727.20
2024-02-19T15:50:39.624Z,100733.80
2024-02-19T15:55:44.951Z,100741.19
2024-02-19T16:01:07.861Z,100745.41
2024-02-19T16:06:13.722Z,100753.34
2024-02-19T16:11:23.915Z,100761.60
2024-02-19T16:16:31.172Z,100763.94
2024-02-19T16:21:35.664Z,100766.34
2024-02-19T16:26:39.839Z,100775.38
2024-02-19T16:31:43.821Z,100783.79
2024-02-19T16:36:47.841Z,100790.88
2024-02-19T16:41:51.921Z,100796.33
2024-02-19T16:47:04.132Z,100802.95
2024-02-19T16:52:08.990Z,100811.46
2024-02-19T16:57:22.292Z,100807.79
2024-02-19T17:02:28.772Z,100817.04
2024-02-19T17:07:33.402Z,100820.60
2024-02-19T17:12:37.671Z,100827.45
2024-02-19T17:17:42.052Z,100831.12
2024-02-19T17:22:47.269Z,100833.64
2024-02-19T17:27:51.561Z,100837.63
2024-02-19T17:32:56.133Z,100846.05
2024-02-19T17:38:00.164Z,100854.95
2024-02-19T17:43:05.238Z,100860.34
2024-02-19T17:48:13.876Z,100866.74
2024-02-19T17:53:18.703Z,100875.93
2024-02-19T17:58:22.833Z,100882.78
2024-02-19T18:03:28.826Z,100889.80
2024-02-19T18:08:33.718Z,100892.36
2024-02-19T18:13:37.775Z,100895.05
2024-02-19T18:18:43.526Z,100898.84
2024-02-19T18:23:49.211Z,100900.02
2024-02-19T18:28:56.732Z,100899.48
2024-02-19T18:34:01.383Z,100897.58
2024-02-19T18:39:07.183Z,100901.66
2024-02-19T18:44:11.302Z,100895.05
2024-02-19T18:49:16.826Z,100901.72
2024-02-19T18:54:27.705Z,100897.49
2024-02-19T18:59:43.548Z,100901.40
2024-02-19T19:04:49.051Z,100899.09
2024-02-19T19:09:53.573Z,100899.50
2024-02-19T19:14:59.259Z,100900.31
2024-02-19T19:20:09.759Z,100904.70
2024-02-19T19:25:14.933Z,100906.44
2024-02-19T19:30:19.104Z,100913.65
2024-02-19T19:35:24.599Z,100916.85
2024-02-19T19:40:28.722Z,100920.23
2024-02-19T19:45:33.073Z,100922.32
2024-02-19T19:50:38.384Z,100922.77
2024-02-19T19:55:42.616Z,100920.30
2024-02-19T20:00:47.529Z,100919.77
2024-02-19T20:05:51.676Z,100916.77
2024-02-19T20:10:59.418Z,100917.96
2024-02-19T20:16:04.023Z,100924.34
2024-02-19T20:21:10.963Z,100923.71
2024-02-19T20:26:18.681Z,100928.18
2024-02-19T20:31:22.802Z,100928.75
2024-02-19T20:36:26.768Z,100928.40
2024-02-19T20:41:34.166Z,100931.80
2024-02-19T20:46:38.413Z,100930.90
2024-02-19T20:51:47.137Z,100933.23
2024-02-19T21:02:55.473Z,100938.85
2024-02-19T21:08:00.878Z,100939.04
2024-02-19T21:13:06.339Z,100941.36
2024-02-19T21:18:12.904Z,100942.11
2024-02-19T21:23:17.009Z,100937.85
2024-02-19T21:28:21.375Z,100934.56
2024-02-19T21:33:26.182Z,100936.05
2024-02-19T21:38:30.298Z,100937.22
2024-02-19T21:43:34.506Z,100935.75
2024-02-19T21:48:41.475Z,100934.57
2024-02-19T21:53:45.875Z,100937.65
2024-02-19T21:58:51.468Z,100937.77
2024-02-19T22:03:57.065Z,100939.74
2024-02-19T22:09:02.008Z,100930.94
2024-02-19T22:14:07.807Z,100930.86
2024-02-19T22:19:18.171Z,100931.58
2024-02-19T22:24:26.197Z,100925.39
2024-02-19T22:29:33.313Z,100928.15
2024-02-19T22:34:41.338Z,100926.95
2024-02-19T22:39:48.851Z,100927.23
2024-02-19T22:44:54.997Z,100931.70
2024-02-19T22:50:02.366Z,100934.15
2024-02-19T22:55:39.533Z,100931.54
2024-02-19T23:00:54.053Z,100938.14
2024-02-19T23:05:58.566Z,100942.41
2024-02-19T23:11:03.094Z,100941.96
2024-02-19T23:16:08.524Z,100942.80
2024-02-19T23:21:16.761Z,100935.88
2024-02-19T23:26:21.077Z,100932.27
2024-02-19T23:31:27.165Z,100930.40
2024-02-19T23:36:37.676Z,100926.06
2024-02-19T23:41:41.819Z,100926.77
2024-02-19T23:46:45.672Z,100928.83
2024-02-19T23:51:50.169Z,100930.14
2024-02-19T23:57:02.288Z,100932.61
